createdAt,value
2022-09-28T00:06:46.093Z,9.6
2022-09-28T00:21:17.089Z,9.5
2022-09-28T00:35:50.144Z,9.6
2022-09-28T00:50:21.017Z,9.5
2022-09-28T01:04:52.738Z,9.6
2022-09-28T01:19:23.563Z,9.4
2022-09-28T01:33:53.737Z,9.5
2022-09-28T01:48:25.038Z,9.3
2022-09-28T02:02:55.720Z,9.3
2022-09-28T02:17:26.092Z,9.4
2022-09-28T02:31:55.694Z,9.2
2022-09-28T02:46:27.184Z,9.2
2022-09-28T03:00:58.101Z,9.3
2022-09-28T03:15:30.678Z,9.3
2022-09-28T03:30:01.292Z,9.1
2022-09-28T03:44:32.371Z,9
2022-09-28T03:59:03.091Z,9.1
2022-09-28T04:13:34.468Z,9.3
2022-09-28T04:28:04.202Z,9
2022-09-28T04:42:35.625Z,9.3
2022-09-28T04:57:06.650Z,8.9
2022-09-28T05:11:38.616Z,9.3
2022-09-28T05:26:09.665Z,8.9
2022-09-28T05:40:47.222Z,9.1
2022-09-28T05:55:13.902Z,9.2
2022-09-28T06:09:50.014Z,9.2
2022-09-28T06:24:23.900Z,9.2
2022-09-28T06:38:58.036Z,9.3
2022-09-28T06:53:25.696Z,9.6
2022-09-28T07:07:56.275Z,9.5
2022-09-28T07:22:40.023Z,9.4
2022-09-28T07:37:05.862Z,9.6
2022-09-28T07:51:37.851Z,9.9
2022-09-28T08:06:09.962Z,9.9
2022-09-28T08:20:38.480Z,9.8
2022-09-28T08:35:08.633Z,9.8
2022-09-28T08:49:40.176Z,10.4
2022-09-28T09:04:12.881Z,10.4
2022-09-28T09:18:43.505Z,10.8
2022-09-28T09:33:14.581Z,10.3
2022-09-28T09:47:43.814Z,10.7
2022-09-28T10:02:15.034Z,10.5
2022-09-28T10:16:45.384Z,10.5
2022-09-28T10:31:16.214Z,10.4
2022-09-28T10:45:48.067Z,10.8
2022-09-28T11:00:19.358Z,10.8
2022-09-28T11:14:49.878Z,10.3
2022-09-28T11:29:22.638Z,10.6
2022-09-28T11:43:52.680Z,10.8
2022-09-28T11:58:25.298Z,11.1
2022-09-28T12:12:55.821Z,11
2022-09-28T12:27:28.598Z,11.3
2022-09-28T12:42:00.727Z,11.4
2022-09-28T12:56:29.932Z,11.5
2022-09-28T13:11:07.649Z,11.5
2022-09-28T13:25:35.377Z,11.8
2022-09-28T13:40:06.423Z,12.1
2022-09-28T13:54:41.617Z,12
2022-09-28T14:09:12.483Z,11.9
2022-09-28T14:23:43.804Z,12.2
2022-09-28T14:38:15.419Z,12
2022-09-28T14:52:46.883Z,12.1
2022-09-28T15:07:18.529Z,11.9
2022-09-28T15:21:48.956Z,11.7
2022-09-28T15:36:20.631Z,11.8
2022-09-28T15:50:52.012Z,11.8
2022-09-28T16:05:23.076Z,11.6
2022-09-28T16:19:53.187Z,11.3
2022-09-28T16:34:25.423Z,11.1
2022-09-28T16:48:56.461Z,11.3
2022-09-28T17:03:34.080Z,11.5
2022-09-28T17:18:08.126Z,11.2
2022-09-28T17:32:41.885Z,11.3
2022-09-28T17:47:15.226Z,10.5
2022-09-28T18:01:40.972Z,10
2022-09-28T18:16:12.002Z,9.9
2022-09-28T18:30:44.503Z,10.1
2022-09-28T18:45:21.588Z,10
2022-09-28T18:59:54.164Z,9.8
2022-09-28T19:14:21.167Z,9.8
2022-09-28T19:28:51.048Z,9.9
2022-09-28T19:43:22.246Z,9.7
2022-09-28T19:57:52.864Z,9.7
2022-09-28T20:12:23.404Z,9.7
2022-09-28T20:26:53.681Z,9.5
2022-09-28T20:41:24.883Z,9.4
2022-09-28T20:55:53.726Z,9
2022-09-28T21:10:25.433Z,8.8
2022-09-28T21:24:57.001Z,8.8
2022-09-28T21:39:28.761Z,8.8
2022-09-28T21:54:03.777Z,8.7
2022-09-28T22:08:32.768Z,8.8
2022-09-28T22:23:02.588Z,8.8
2022-09-28T22:37:31.741Z,8.7
2022-09-28T22:52:02.901Z,8.8
2022-09-28T23:06:32.480Z,8.7
2022-09-28T23:21:02.235Z,8.9
2022-09-28T23:35:33.417Z,8.8
2022-09-28T23:50:04.020Z,8.7
